Terminal Aerodrome Forecast
Issued by NWS Dodge City, KS

Home | Current Version | Previous Version | Text Only | Print | Product List | Glossary On
Versions: 1 2 3 4 5 6 7 8 9 10 11 12 13 14 15 16 17 18
000
FTUS43 KDDC 280536
TAFDDC
TAF
KDDC 280536Z 2806/0106 22012KT P6SM SCT250
     FM280900 22008KT P6SM SCT200
     FM281700 27012KT P6SM BKN200
     FM282300 33015KT P6SM BKN100
     FM010300 36022G30KT P6SM BKN070=

USA.gov is the U.S. government's official web portal to all federal, state and local government web resources and services.